Mountain Home A F B, Idaho
Current Conditions -  °F | °C
As of 9:58 AM on Wednesday 26 Nov 2014 (Local Time) from KMUO Reporting Station
Clear Clear  
Wind Chill: 49°   Ceiling: Unl
Heat Index: 49°   Visibility: 10mi
Dew Point: 43°   Wind: 3mph
Humidity: 78%   Direction: 210°SSW
Pressure: 30.34"   Gusts: NA
Location:  43.0093°N, 115.5883°W
Report Text: KMUO 261658Z AUTO 21003KT 10SM CLR 10/06 A3034 RMK AO2 SLP278 T00970060
Loading
Personal Weather Stations






























Interactive Weather Map New forecast layout! Learn more

10-Day Weather Forecast

Advertisements
Track Severe Weather on mobile